createdAt,value
2018-08-23T00:02:23.307Z,99.90
2018-08-23T00:04:51.021Z,99.90
2018-08-23T00:07:18.719Z,99.90
2018-08-23T00:09:50.132Z,99.90
2018-08-23T00:12:18.034Z,99.90
2018-08-23T00:14:45.765Z,99.90
2018-08-23T00:17:13.457Z,99.90
2018-08-23T00:19:41.161Z,99.90
2018-08-23T00:22:10.766Z,99.90
2018-08-23T00:24:38.464Z,99.90
2018-08-23T00:27:06.260Z,99.90
2018-08-23T00:29:33.928Z,99.90
2018-08-23T00:32:03.836Z,99.90
2018-08-23T00:34:32.883Z,99.90
2018-08-23T00:37:01.360Z,99.90
2018-08-23T00:39:29.633Z,99.90
2018-08-23T00:42:02.693Z,99.90
2018-08-23T00:44:34.836Z,99.90
2018-08-23T00:47:02.553Z,99.90
2018-08-23T00:49:31.741Z,99.90
2018-08-23T00:51:59.444Z,99.90
2018-08-23T00:54:27.169Z,99.90
2018-08-23T00:56:54.864Z,99.90
2018-08-23T00:59:22.592Z,99.90
2018-08-23T01:01:57.993Z,99.90
2018-08-23T01:04:25.726Z,99.90
2018-08-23T01:06:53.433Z,99.90
2018-08-23T01:09:21.862Z,99.90
2018-08-23T01:11:49.582Z,99.90
2018-08-23T01:14:17.324Z,99.90
2018-08-23T01:17:16.669Z,99.90
2018-08-23T01:19:49.861Z,99.90
2018-08-23T01:22:17.625Z,99.90
2018-08-23T01:24:48.881Z,99.90
2018-08-23T01:27:51.915Z,99.90
2018-08-23T01:30:20.719Z,99.90
2018-08-23T01:32:48.472Z,99.90
2018-08-23T01:35:16.207Z,99.90
2018-08-23T01:37:43.932Z,99.90
2018-08-23T01:40:12.130Z,99.90
2018-08-23T01:42:40.905Z,99.90
2018-08-23T01:45:09.360Z,99.90
2018-08-23T01:47:42.912Z,99.90
2018-08-23T01:50:11.374Z,99.90
2018-08-23T01:52:51.721Z,99.90
2018-08-23T01:55:20.317Z,99.90
2018-08-23T01:57:48.261Z,99.90
2018-08-23T02:00:33.873Z,99.90
2018-08-23T02:03:02.311Z,99.90
2018-08-23T02:05:30.066Z,99.90
2018-08-23T02:07:57.801Z,99.90
2018-08-23T02:10:25.496Z,99.90
2018-08-23T02:12:58.173Z,99.90
2018-08-23T02:15:26.261Z,99.90
2018-08-23T02:17:55.160Z,99.90
2018-08-23T02:20:23.838Z,99.90
2018-08-23T02:22:51.922Z,99.90
2018-08-23T02:25:19.616Z,99.90
2018-08-23T02:28:08.421Z,99.90
2018-08-23T02:30:44.529Z,99.90
2018-08-23T02:33:13.138Z,99.90
2018-08-23T02:35:45.343Z,99.90
2018-08-23T02:38:13.118Z,99.90
2018-08-23T02:40:40.781Z,99.90
2018-08-23T02:43:08.561Z,99.90
2018-08-23T02:45:41.581Z,99.90
2018-08-23T02:48:09.297Z,99.90
2018-08-23T02:50:37.129Z,99.90
2018-08-23T02:53:15.974Z,99.90
2018-08-23T02:55:47.982Z,99.90
2018-08-23T02:58:15.704Z,99.90
2018-08-23T03:00:45.357Z,99.90
2018-08-23T03:03:13.089Z,99.90
2018-08-23T03:05:40.821Z,99.90
2018-08-23T03:08:08.531Z,99.90
2018-08-23T03:10:36.262Z,99.90
2018-08-23T03:13:03.993Z,99.90
2018-08-23T03:15:31.737Z,99.90
2018-08-23T03:17:59.493Z,99.90
2018-08-23T03:20:27.288Z,99.90
2018-08-23T03:22:56.075Z,99.90
2018-08-23T03:25:24.993Z,99.90
2018-08-23T03:27:53.038Z,99.90
2018-08-23T03:30:21.328Z,99.90
2018-08-23T03:32:49.089Z,99.90
2018-08-23T03:35:16.819Z,99.90
2018-08-23T03:37:44.561Z,99.90
2018-08-23T03:40:13.302Z,99.90
2018-08-23T03:42:41.168Z,99.90
2018-08-23T03:45:14.585Z,99.90
2018-08-23T03:47:53.476Z,99.90
2018-08-23T03:50:21.203Z,99.90
2018-08-23T03:52:50.368Z,99.90
2018-08-23T03:55:18.633Z,99.90
2018-08-23T03:57:51.413Z,99.90
2018-08-23T04:00:24.142Z,99.90
2018-08-23T04:02:51.893Z,99.90
2018-08-23T04:05:22.179Z,99.90
2018-08-23T04:07:52.500Z,99.90
2018-08-23T04:10:22.103Z,99.90
2018-08-23T04:12:51.326Z,99.90
2018-08-23T04:15:32.079Z,99.90
2018-08-23T04:18:06.753Z,99.90
2018-08-23T04:20:36.071Z,99.90
2018-08-23T04:23:03.825Z,99.90
2018-08-23T04:25:33.319Z,99.90
2018-08-23T04:28:01.299Z,99.90
2018-08-23T04:30:30.263Z,99.90
2018-08-23T04:32:59.332Z,99.90
2018-08-23T04:35:29.559Z,99.90
2018-08-23T04:37:58.592Z,99.90
2018-08-23T04:40:28.065Z,99.90
2018-08-23T04:42:57.305Z,99.90
2018-08-23T04:45:26.228Z,99.90
2018-08-23T04:48:06.061Z,99.90
2018-08-23T04:50:35.159Z,99.90
2018-08-23T04:53:05.445Z,99.90
2018-08-23T04:55:35.214Z,99.90
2018-08-23T04:58:05.891Z,99.90
2018-08-23T05:00:36.111Z,99.90
2018-08-23T05:03:05.645Z,99.90
2018-08-23T05:05:35.038Z,99.90
2018-08-23T05:08:02.810Z,99.90
2018-08-23T05:10:32.484Z,99.90
2018-08-23T05:13:01.990Z,99.90
2018-08-23T05:15:32.188Z,99.90
2018-08-23T05:18:01.551Z,99.90
2018-08-23T05:20:31.736Z,99.90
2018-08-23T05:23:06.572Z,99.90
2018-08-23T05:25:35.832Z,99.90
2018-08-23T05:28:11.539Z,99.90
2018-08-23T05:30:39.366Z,99.90
2018-08-23T05:33:17.594Z,99.90
2018-08-23T05:35:46.670Z,99.90
2018-08-23T05:38:16.326Z,99.90
2018-08-23T05:40:51.926Z,99.90
2018-08-23T05:43:21.270Z,99.90
2018-08-23T05:45:53.182Z,99.90
2018-08-23T05:48:32.318Z,99.90
2018-08-23T05:51:06.426Z,99.90
2018-08-23T05:53:38.217Z,99.90
2018-08-23T05:56:06.046Z,99.90
2018-08-23T05:58:33.801Z,99.90
2018-08-23T06:01:02.269Z,99.90
2018-08-23T06:03:30.042Z,99.90
2018-08-23T06:05:58.073Z,99.90
2018-08-23T06:08:25.813Z,99.90
2018-08-23T06:10:57.542Z,99.90
2018-08-23T06:13:25.295Z,99.90
2018-08-23T06:15:54.144Z,99.90
2018-08-23T06:18:22.701Z,99.90
2018-08-23T06:20:50.434Z,99.90
2018-08-23T06:23:18.554Z,99.90
2018-08-23T06:25:46.913Z,99.90
2018-08-23T06:28:16.530Z,99.90
2018-08-23T06:30:44.794Z,99.90
2018-08-23T06:33:14.733Z,99.90
2018-08-23T06:35:45.807Z,99.90
2018-08-23T06:38:13.569Z,99.90
2018-08-23T06:40:41.357Z,99.90
2018-08-23T06:43:09.100Z,99.90
2018-08-23T06:45:36.825Z,99.90
2018-08-23T06:48:04.643Z,99.90
2018-08-23T06:50:32.419Z,99.90
2018-08-23T06:53:00.148Z,99.90
2018-08-23T06:55:35.450Z,99.90
2018-08-23T06:58:04.014Z,99.90
2018-08-23T07:00:32.190Z,99.90
2018-08-23T07:02:59.909Z,99.90
2018-08-23T07:05:27.789Z,99.90
2018-08-23T07:07:55.529Z,99.90
2018-08-23T07:10:23.286Z,99.90
2018-08-23T07:12:51.021Z,99.90
2018-08-23T07:15:18.757Z,99.90
2018-08-23T07:17:46.567Z,99.90
2018-08-23T07:20:16.403Z,99.90
2018-08-23T07:22:44.177Z,99.90
2018-08-23T07:25:13.289Z,99.90
2018-08-23T07:27:42.265Z,99.90
2018-08-23T07:30:14.757Z,99.90
2018-08-23T07:32:43.783Z,99.90
2018-08-23T07:35:12.538Z,99.90
2018-08-23T07:37:41.655Z,99.90
2018-08-23T07:40:11.810Z,99.90
2018-08-23T07:42:41.378Z,99.90
2018-08-23T07:45:09.837Z,99.90
2018-08-23T07:47:42.883Z,99.90
2018-08-23T07:50:10.623Z,99.90
2018-08-23T07:52:41.119Z,99.90
2018-08-23T07:55:08.834Z,99.90
2018-08-23T07:57:37.250Z,99.90
2018-08-23T08:00:22.593Z,99.90
2018-08-23T08:02:50.335Z,99.90
2018-08-23T08:05:18.104Z,99.90
2018-08-23T08:07:45.980Z,99.90
2018-08-23T08:10:20.566Z,99.90
2018-08-23T08:12:49.298Z,99.90
2018-08-23T08:15:17.157Z,99.90
2018-08-23T08:17:44.862Z,99.90
2018-08-23T08:20:12.637Z,99.90
2018-08-23T08:22:40.375Z,99.90
2018-08-23T08:25:19.579Z,99.90
2018-08-23T08:27:48.189Z,99.90
2018-08-23T08:30:17.465Z,99.90
2018-08-23T08:32:45.401Z,99.90
2018-08-23T08:35:16.091Z,99.60
2018-08-23T08:37:44.700Z,99.90
2018-08-23T08:40:13.969Z,99.90
2018-08-23T08:42:41.961Z,99.90
2018-08-23T08:45:11.514Z,99.90
2018-08-23T08:47:40.069Z,99.90
2018-08-23T08:50:07.830Z,99.30
2018-08-23T08:52:35.777Z,98.40
2018-08-23T08:55:04.492Z,97.90
2018-08-23T08:57:32.843Z,99.40
2018-08-23T09:00:01.095Z,98.40
2018-08-23T09:02:30.109Z,99.20
2018-08-23T09:04:57.830Z,98.60
2018-08-23T09:07:27.349Z,97.90
2018-08-23T09:09:55.169Z,97.30
2018-08-23T09:12:23.563Z,96.90
2018-08-23T09:14:51.306Z,95.10
2018-08-23T09:17:30.066Z,95.20
2018-08-23T09:20:02.898Z,94.40
2018-08-23T09:22:35.190Z,94.50
2018-08-23T09:25:03.365Z,94.80
2018-08-23T09:27:31.073Z,94.40
2018-08-23T09:29:58.814Z,93.80
2018-08-23T09:32:28.343Z,94.30
2018-08-23T09:35:00.405Z,94.40
2018-08-23T09:37:29.042Z,94.30
2018-08-23T09:39:56.826Z,94.40
2018-08-23T09:42:29.402Z,92.30
2018-08-23T09:45:02.782Z,91.30
2018-08-23T09:47:30.883Z,91.90
2018-08-23T09:49:59.503Z,90.00
2018-08-23T09:52:32.260Z,88.70
2018-08-23T09:55:00.051Z,89.90
2018-08-23T09:57:27.771Z,91.10
2018-08-23T09:59:56.442Z,92.80
2018-08-23T10:02:29.535Z,92.90
2018-08-23T10:05:02.722Z,93.30
2018-08-23T10:07:35.881Z,93.80
2018-08-23T10:10:09.106Z,95.10
2018-08-23T10:12:42.188Z,98.30
2018-08-23T10:15:15.386Z,99.90
2018-08-23T10:17:48.426Z,99.90
2018-08-23T10:20:21.644Z,99.90
2018-08-23T10:22:54.876Z,99.90
2018-08-23T10:25:36.941Z,99.90
2018-08-23T10:28:05.749Z,99.90
2018-08-23T10:30:33.482Z,99.90
2018-08-23T10:33:01.198Z,99.90
2018-08-23T10:35:28.946Z,99.90
2018-08-23T10:37:56.665Z,99.90
2018-08-23T10:40:24.669Z,99.90
2018-08-23T10:42:52.413Z,99.90
2018-08-23T10:45:20.135Z,99.90
2018-08-23T10:47:53.217Z,99.90
2018-08-23T10:50:20.953Z,99.90
2018-08-23T10:52:48.897Z,99.90
2018-08-23T10:55:16.775Z,99.90
2018-08-23T10:57:44.508Z,99.90
2018-08-23T11:00:12.322Z,99.90
2018-08-23T11:02:40.037Z,99.90
2018-08-23T11:05:07.790Z,99.90
2018-08-23T11:07:41.093Z,99.90
2018-08-23T11:10:14.158Z,99.90
2018-08-23T11:12:47.291Z,99.90
2018-08-23T11:15:20.405Z,99.90
2018-08-23T11:17:53.517Z,99.90
2018-08-23T11:20:28.629Z,99.90
2018-08-23T11:22:56.375Z,99.90
2018-08-23T11:25:24.880Z,99.90
2018-08-23T11:27:53.229Z,99.90
2018-08-23T11:30:21.430Z,99.90
2018-08-23T11:32:50.522Z,99.90
2018-08-23T11:35:18.279Z,99.90
2018-08-23T11:37:46.010Z,99.90
2018-08-23T11:40:13.821Z,99.90
2018-08-23T11:42:42.191Z,99.90
2018-08-23T11:45:09.978Z,99.90
2018-08-23T11:47:37.705Z,99.90
2018-08-23T11:50:05.750Z,99.90
2018-08-23T11:52:33.494Z,99.90
2018-08-23T11:55:01.213Z,99.90
2018-08-23T11:57:28.962Z,99.90
2018-08-23T11:59:56.690Z,99.90
2018-08-23T12:02:24.445Z,99.90
2018-08-23T12:04:52.166Z,99.90
2018-08-23T12:07:19.893Z,99.90
2018-08-23T12:09:47.741Z,96.10
2018-08-23T12:12:15.544Z,99.70
2018-08-23T12:14:43.297Z,99.90
2018-08-23T12:17:11.005Z,96.40
2018-08-23T12:19:38.774Z,94.60
2018-08-23T12:22:06.519Z,94.00
2018-08-23T12:24:34.303Z,96.40
2018-08-23T12:27:02.393Z,95.00
2018-08-23T12:29:30.166Z,96.30
2018-08-23T12:31:57.885Z,97.20
2018-08-23T12:34:29.934Z,98.10
2018-08-23T12:37:03.141Z,99.90
2018-08-23T12:39:36.397Z,99.50
2018-08-23T12:42:09.554Z,99.70
2018-08-23T12:44:39.169Z,98.00
2018-08-23T12:47:06.959Z,97.00
2018-08-23T12:49:34.762Z,94.70
2018-08-23T12:52:02.483Z,94.80
2018-08-23T12:54:30.257Z,94.40
2018-08-23T12:56:57.976Z,91.30
2018-08-23T12:59:25.735Z,90.30
2018-08-23T13:01:53.595Z,83.70
2018-08-23T13:04:21.291Z,78.00
2018-08-23T13:06:49.030Z,80.80
2018-08-23T13:09:16.821Z,80.80
2018-08-23T13:11:45.237Z,85.10
2018-08-23T13:14:13.030Z,83.30
2018-08-23T13:16:40.793Z,83.70
2018-08-23T13:19:08.534Z,87.00
2018-08-23T13:21:36.253Z,84.70
2018-08-23T13:24:04.005Z,81.60
2018-08-23T13:26:37.067Z,83.40
2018-08-23T13:29:04.809Z,84.10
2018-08-23T13:31:32.526Z,85.00
2018-08-23T13:34:00.490Z,83.50
2018-08-23T13:36:28.305Z,86.80
2018-08-23T13:38:56.028Z,84.10
2018-08-23T13:41:23.747Z,77.90
2018-08-23T13:43:51.483Z,75.90
2018-08-23T13:46:19.235Z,77.30
2018-08-23T13:48:46.977Z,78.40
2018-08-23T13:51:14.731Z,75.30
2018-08-23T13:53:42.476Z,75.80
2018-08-23T13:56:10.233Z,73.30
2018-08-23T13:58:37.957Z,71.40
2018-08-23T14:01:05.726Z,72.80
2018-08-23T14:03:33.446Z,72.80
2018-08-23T14:06:01.314Z,69.50
2018-08-23T14:08:29.037Z,69.40
2018-08-23T14:10:56.782Z,68.30
2018-08-23T14:13:24.533Z,69.80
2018-08-23T14:15:57.673Z,67.30
2018-08-23T14:18:25.401Z,69.00
2018-08-23T14:20:53.125Z,67.90
2018-08-23T14:23:20.861Z,67.60
2018-08-23T14:25:48.577Z,64.80
2018-08-23T14:28:16.325Z,64.00
2018-08-23T14:30:44.065Z,66.10
2018-08-23T14:33:11.869Z,64.70
2018-08-23T14:35:39.541Z,65.10
2018-08-23T14:38:07.309Z,63.70
2018-08-23T14:40:35.045Z,65.40
2018-08-23T14:43:02.766Z,64.00
2018-08-23T14:45:31.877Z,66.30
2018-08-23T14:48:05.120Z,66.00
2018-08-23T14:50:33.861Z,66.20
2018-08-23T14:53:01.607Z,67.50
2018-08-23T14:55:34.911Z,63.60
2018-08-23T14:58:02.693Z,65.70
2018-08-23T15:00:30.748Z,66.60
2018-08-23T15:02:58.478Z,66.00
2018-08-23T15:05:26.210Z,67.50
2018-08-23T15:07:53.977Z,64.90
2018-08-23T15:10:21.707Z,65.10
2018-08-23T15:12:49.525Z,61.60
2018-08-23T15:15:17.296Z,60.70
2018-08-23T15:17:45.006Z,61.90
2018-08-23T15:20:12.763Z,63.40
2018-08-23T15:22:40.487Z,64.40
2018-08-23T15:25:08.246Z,64.30
2018-08-23T15:27:35.978Z,63.80
2018-08-23T15:30:04.806Z,64.50
2018-08-23T15:32:32.561Z,66.00
2018-08-23T15:35:00.329Z,65.10
2018-08-23T15:37:28.083Z,62.70
2018-08-23T15:39:55.816Z,62.50
2018-08-23T15:42:23.577Z,61.70
2018-08-23T15:44:51.305Z,64.70
2018-08-23T15:47:19.030Z,63.10
2018-08-23T15:49:46.817Z,63.30
2018-08-23T15:52:14.525Z,62.60
2018-08-23T15:54:42.316Z,62.30
2018-08-23T15:57:10.051Z,62.40
2018-08-23T15:59:37.789Z,63.40
2018-08-23T16:02:05.572Z,62.80
2018-08-23T16:04:33.386Z,64.20
2018-08-23T16:07:01.157Z,64.50
2018-08-23T16:09:28.878Z,64.80
2018-08-23T16:11:56.677Z,65.60
2018-08-23T16:14:24.393Z,66.20
2018-08-23T16:16:58.250Z,65.20
2018-08-23T16:19:31.490Z,65.10
2018-08-23T16:21:59.426Z,66.10
2018-08-23T16:24:27.985Z,65.90
2018-08-23T16:27:03.213Z,66.30
2018-08-23T16:29:30.977Z,66.10
2018-08-23T16:31:58.762Z,66.20
2018-08-23T16:34:27.026Z,67.60
2018-08-23T16:36:54.768Z,67.10
2018-08-23T16:39:22.497Z,68.80
2018-08-23T16:41:50.254Z,69.20
2018-08-23T16:44:17.986Z,68.50
2018-08-23T16:46:45.741Z,69.00
2018-08-23T16:49:13.483Z,70.00
2018-08-23T16:51:41.444Z,71.20
2018-08-23T16:54:09.209Z,71.40
2018-08-23T16:56:36.937Z,71.20
2018-08-23T16:59:05.053Z,75.10
2018-08-23T17:01:32.778Z,82.20
2018-08-23T17:04:00.807Z,84.50
2018-08-23T17:06:29.069Z,87.70
2018-08-23T17:08:57.073Z,91.30
2018-08-23T17:11:24.802Z,93.30
2018-08-23T17:13:54.061Z,94.50
2018-08-23T17:16:27.270Z,99.80
2018-08-23T17:18:55.041Z,99.90
2018-08-23T17:21:22.913Z,99.90
2018-08-23T17:23:50.748Z,99.90
2018-08-23T17:26:18.521Z,99.90
2018-08-23T17:28:46.334Z,99.90
2018-08-23T17:31:14.069Z,99.90
2018-08-23T17:33:41.823Z,99.90
2018-08-23T17:36:09.549Z,99.90
2018-08-23T17:38:37.309Z,99.90
2018-08-23T17:41:05.089Z,99.90
2018-08-23T17:43:32.862Z,99.90
2018-08-23T17:46:00.593Z,99.90
2018-08-23T17:48:28.384Z,99.90
2018-08-23T17:50:56.097Z,99.90
2018-08-23T17:53:23.830Z,99.90
2018-08-23T17:55:51.590Z,99.90
2018-08-23T17:58:19.319Z,99.90
2018-08-23T18:00:47.093Z,99.90
2018-08-23T18:03:15.664Z,99.90
2018-08-23T18:05:43.414Z,99.90
2018-08-23T18:08:11.137Z,99.90
2018-08-23T18:10:39.613Z,99.90
2018-08-23T18:13:07.764Z,99.90
2018-08-23T18:15:40.993Z,99.90
2018-08-23T18:18:09.322Z,99.90
2018-08-23T18:20:37.054Z,99.90
2018-08-23T18:23:06.137Z,99.90
2018-08-23T18:25:33.968Z,99.90
2018-08-23T18:28:02.550Z,99.90
2018-08-23T18:30:30.266Z,99.90
2018-08-23T18:32:58.014Z,99.90
2018-08-23T18:35:26.843Z,99.90
2018-08-23T18:37:54.621Z,99.90
2018-08-23T18:40:24.079Z,99.90
2018-08-23T18:42:52.865Z,99.90
2018-08-23T18:45:20.637Z,99.90
2018-08-23T18:47:49.546Z,99.90
2018-08-23T18:50:17.321Z,99.90
2018-08-23T18:52:45.070Z,99.90
2018-08-23T18:55:13.929Z,99.90
2018-08-23T18:57:41.711Z,99.90
2018-08-23T19:00:09.578Z,99.90
2018-08-23T19:02:37.211Z,99.90
2018-08-23T19:05:04.990Z,99.90
2018-08-23T19:07:39.144Z,99.90
2018-08-23T19:10:08.121Z,99.90
2018-08-23T19:12:36.962Z,99.90
2018-08-23T19:15:05.118Z,99.90
2018-08-23T19:17:38.356Z,99.90
2018-08-23T19:20:06.909Z,99.90
2018-08-23T19:22:34.797Z,99.90
2018-08-23T19:25:02.537Z,99.90
2018-08-23T19:27:30.305Z,99.90
2018-08-23T19:29:58.065Z,99.90
2018-08-23T19:32:25.821Z,99.90
2018-08-23T19:34:54.435Z,99.90
2018-08-23T19:37:22.641Z,99.90
2018-08-23T19:39:50.761Z,99.90
2018-08-23T19:42:18.795Z,99.90
2018-08-23T19:44:51.989Z,99.90
2018-08-23T19:47:25.132Z,99.90
2018-08-23T19:49:55.049Z,99.90
2018-08-23T19:52:22.980Z,99.90
2018-08-23T19:54:51.291Z,99.90
2018-08-23T19:57:19.010Z,99.90
2018-08-23T19:59:46.774Z,99.90
2018-08-23T20:02:14.510Z,99.90
2018-08-23T20:04:42.905Z,99.90
2018-08-23T20:07:11.086Z,99.90
2018-08-23T20:09:39.058Z,99.90
2018-08-23T20:12:07.041Z,99.90
2018-08-23T20:14:34.985Z,99.90
2018-08-23T20:17:02.913Z,99.90
2018-08-23T20:19:30.634Z,99.90
2018-08-23T20:21:59.114Z,99.90
2018-08-23T20:24:28.289Z,99.90
2018-08-23T20:26:56.682Z,99.90
2018-08-23T20:29:24.405Z,99.90
2018-08-23T20:31:52.281Z,99.90
2018-08-23T20:34:20.025Z,99.90
2018-08-23T20:36:47.755Z,99.90
2018-08-23T20:39:15.823Z,99.90
2018-08-23T20:41:44.985Z,99.90
2018-08-23T20:44:12.790Z,99.90
2018-08-23T20:46:40.910Z,99.90
2018-08-23T20:49:08.801Z,99.90
2018-08-23T20:51:37.169Z,99.90
2018-08-23T20:54:05.149Z,99.90
2018-08-23T20:56:32.873Z,99.90
2018-08-23T20:59:00.601Z,99.90
2018-08-23T21:01:28.853Z,99.90
2018-08-23T21:03:56.582Z,99.90
2018-08-23T21:06:24.478Z,99.90
2018-08-23T21:08:52.198Z,99.90
2018-08-23T21:11:19.941Z,99.90
2018-08-23T21:13:47.690Z,99.90
2018-08-23T21:16:15.461Z,99.90
2018-08-23T21:18:43.177Z,99.90
2018-08-23T21:21:10.905Z,99.90
2018-08-23T21:23:38.649Z,99.90
2018-08-23T21:26:06.468Z,99.90
2018-08-23T21:28:34.214Z,99.90
2018-08-23T21:31:01.933Z,99.90
2018-08-23T21:33:29.758Z,99.90
2018-08-23T21:35:57.542Z,99.90
2018-08-23T21:38:25.278Z,99.90
2018-08-23T21:40:52.998Z,99.90
2018-08-23T21:43:20.748Z,99.90
2018-08-23T21:45:48.465Z,99.90
2018-08-23T21:48:16.186Z,99.90
2018-08-23T21:50:43.912Z,99.90
2018-08-23T21:53:12.260Z,99.90
2018-08-23T21:55:40.265Z,99.90
2018-08-23T21:58:09.539Z,99.90
2018-08-23T22:00:42.749Z,99.90
2018-08-23T22:03:11.199Z,99.90
2018-08-23T22:05:39.398Z,99.90
2018-08-23T22:08:07.342Z,99.90
2018-08-23T22:10:35.090Z,99.90
2018-08-23T22:13:02.894Z,99.90
2018-08-23T22:15:30.642Z,99.90
2018-08-23T22:17:58.361Z,99.90
2018-08-23T22:20:26.073Z,99.90
2018-08-23T22:22:53.824Z,99.90
2018-08-23T22:25:21.573Z,99.90
2018-08-23T22:27:49.284Z,99.90
2018-08-23T22:30:17.001Z,99.90
2018-08-23T22:32:44.733Z,99.90
2018-08-23T22:35:12.783Z,99.90
2018-08-23T22:37:40.546Z,99.90
2018-08-23T22:40:08.285Z,99.90
2018-08-23T22:42:36.033Z,99.90
2018-08-23T22:45:03.822Z,99.90
2018-08-23T22:47:31.559Z,99.90
2018-08-23T22:49:59.323Z,99.90
2018-08-23T22:52:27.038Z,99.90
2018-08-23T22:54:54.786Z,99.90
2018-08-23T22:57:22.534Z,99.90
2018-08-23T22:59:50.237Z,99.90
2018-08-23T23:02:23.425Z,99.90
2018-08-23T23:04:51.145Z,99.90
2018-08-23T23:07:18.921Z,99.90
2018-08-23T23:09:46.637Z,99.90
2018-08-23T23:12:14.381Z,99.90
2018-08-23T23:14:42.115Z,99.90
2018-08-23T23:17:10.442Z,99.90
2018-08-23T23:19:38.226Z,99.90
2018-08-23T23:22:06.009Z,99.90
2018-08-23T23:24:39.121Z,99.90
2018-08-23T23:27:07.314Z,99.90
2018-08-23T23:29:35.066Z,99.90
2018-08-23T23:32:02.821Z,99.90
2018-08-23T23:34:30.565Z,99.90
2018-08-23T23:36:58.293Z,99.90
2018-08-23T23:39:26.005Z,99.90
2018-08-23T23:41:53.777Z,99.90
2018-08-23T23:44:21.489Z,99.90
2018-08-23T23:46:49.229Z,99.90
2018-08-23T23:49:16.940Z,99.90
2018-08-23T23:51:44.673Z,99.90
2018-08-23T23:54:12.398Z,99.90
2018-08-23T23:56:40.134Z,99.90
2018-08-23T23:59:07.860Z,99.90
